JBU32 EHAM-KBOS
Flight info
| Callsign | JBU32 |
|---|---|
| Flight time | N/A |
| Altitude | 34000 |
| Route | IDRID L980 MANGO DCT ENHAQ DCT GAJIT DCT BAPHU DCT LESLU/M079F340 DCT RODEL/M079F350 NATG NICSO/N0449F360 N258B TUSKY DCT EURRO OOSHN5 |
| Aircraft | A21N/M-SDE2E3FGHIRWXY/LB1 |
Departure
| Time | 2026-05-06 08:54 |
|---|---|
| Airport | Amsterdam Airport Schiphol (EHAM) |
Arrival
| Time | N/A |
|---|---|
| Airport | Boston Logan International Airport (KBOS) |
| Time | Latitude | Longitude | Altitude | Speed | Heading |
|---|---|---|---|---|---|
| 2026-05-06 08:37 | 52.30625 | 4.76632 | 1 ft | 0 kts | 237° |
| 2026-05-06 08:40 | 52.30624 | 4.76631 | 3 ft | 0 kts | 238° |
| 2026-05-06 08:40 | 52.30624 | 4.76630 | 1 ft | 0 kts | 238° |
| 2026-05-06 08:44 | 52.30626 | 4.76635 | 1 ft | 2 kts | 237° |
| 2026-05-06 08:44 | 52.30635 | 4.76657 | 1 ft | 2 kts | 235° |
| 2026-05-06 08:45 | 52.30645 | 4.76679 | 1 ft | 2 kts | 232° |
| 2026-05-06 08:45 | 52.30655 | 4.76699 | 1 ft | 2 kts | 228° |
| 2026-05-06 08:45 | 52.30667 | 4.76718 | 1 ft | 2 kts | 221° |
| 2026-05-06 08:45 | 52.30680 | 4.76734 | 1 ft | 2 kts | 211° |
| 2026-05-06 08:46 | 52.30695 | 4.76745 | 1 ft | 2 kts | 197° |
| 2026-05-06 08:46 | 52.30707 | 4.76751 | 1 ft | 1 kts | 205° |
| 2026-05-06 08:46 | 52.30708 | 4.76751 | 1 ft | 0 kts | 209° |
| 2026-05-06 08:47 | 52.30706 | 4.76750 | 1 ft | 1 kts | 208° |
| 2026-05-06 08:47 | 52.30697 | 4.76745 | 1 ft | 2 kts | 194° |
| 2026-05-06 08:47 | 52.30659 | 4.76759 | 1 ft | 10 kts | 160° |
| 2026-05-06 08:47 | 52.30596 | 4.76864 | 1 ft | 16 kts | 130° |
| 2026-05-06 08:48 | 52.30487 | 4.76989 | 0 ft | 22 kts | 148° |
| 2026-05-06 08:48 | 52.30366 | 4.76963 | 0 ft | 20 kts | 236° |
| 2026-05-06 08:48 | 52.30291 | 4.76766 | 0 ft | 21 kts | 237° |
| 2026-05-06 08:48 | 52.30213 | 4.76567 | 1 ft | 21 kts | 237° |
| 2026-05-06 08:49 | 52.30136 | 4.76360 | 1 ft | 22 kts | 236° |
| 2026-05-06 08:49 | 52.30053 | 4.76152 | 0 ft | 22 kts | 239° |
| 2026-05-06 08:49 | 52.29973 | 4.75938 | 0 ft | 23 kts | 237° |
| 2026-05-06 08:49 | 52.29888 | 4.75720 | 1 ft | 23 kts | 238° |
| 2026-05-06 08:50 | 52.29804 | 4.75494 | 1 ft | 23 kts | 238° |
| 2026-05-06 08:50 | 52.29790 | 4.75295 | 1 ft | 17 kts | 306° |
| 2026-05-06 08:50 | 52.29868 | 4.75144 | 1 ft | 18 kts | 311° |
| 2026-05-06 08:50 | 52.29951 | 4.74993 | 1 ft | 18 kts | 311° |
| 2026-05-06 08:51 | 52.30035 | 4.74835 | 1 ft | 19 kts | 311° |
| 2026-05-06 08:51 | 52.30121 | 4.74674 | 1 ft | 19 kts | 311° |
| 2026-05-06 08:51 | 52.30211 | 4.74510 | 1 ft | 20 kts | 311° |
| 2026-05-06 08:51 | 52.30299 | 4.74343 | 1 ft | 18 kts | 303° |
| 2026-05-06 08:52 | 52.30323 | 4.74168 | 1 ft | 15 kts | 280° |
| 2026-05-06 08:52 | 52.30290 | 4.74010 | 1 ft | 15 kts | 229° |
| 2026-05-06 08:52 | 52.30208 | 4.73898 | 0 ft | 16 kts | 228° |
| 2026-05-06 08:52 | 52.30199 | 4.73744 | 0 ft | 12 kts | 326° |
| 2026-05-06 08:53 | 52.30326 | 4.73746 | -5 ft | 42 kts | 3° |
| 2026-05-06 08:53 | 52.30866 | 4.73796 | 2 ft | 115 kts | 3° |
| 2026-05-06 08:53 | 52.31899 | 4.73873 | 34 ft | 174 kts | 5° |
| 2026-05-06 08:53 | 52.33172 | 4.73973 | 409 ft | 188 kts | 4° |
| 2026-05-06 08:54 | 52.34442 | 4.73998 | 1466 ft | 178 kts | 2° |
| 2026-05-06 08:54 | 52.35705 | 4.73964 | 2173 ft | 191 kts | 2° |
| 2026-05-06 08:54 | 52.37116 | 4.73740 | 2545 ft | 220 kts | 348° |
| 2026-05-06 08:54 | 52.38511 | 4.72360 | 2982 ft | 254 kts | 313° |
| 2026-05-06 08:55 | 52.39209 | 4.69645 | 3848 ft | 270 kts | 277° |
| 2026-05-06 08:55 | 52.38920 | 4.66602 | 4849 ft | 276 kts | 251° |
| 2026-05-06 08:55 | 52.38046 | 4.63777 | 5845 ft | 279 kts | 238° |
| 2026-05-06 08:55 | 52.36983 | 4.61250 | 6863 ft | 279 kts | 235° |
| 2026-05-06 08:56 | 52.35837 | 4.58696 | 7894 ft | 278 kts | 236° |
| 2026-05-06 08:56 | 52.34716 | 4.56104 | 8872 ft | 281 kts | 237° |
| 2026-05-06 08:56 | 52.33634 | 4.53420 | 9883 ft | 284 kts | 239° |
| 2026-05-06 08:56 | 52.32588 | 4.50647 | 10539 ft | 299 kts | 241° |
| 2026-05-06 08:57 | 52.31497 | 4.47601 | 10917 ft | 323 kts | 242° |
| 2026-05-06 08:57 | 52.30350 | 4.44306 | 11299 ft | 344 kts | 242° |
| 2026-05-06 08:57 | 52.29152 | 4.40836 | 11904 ft | 356 kts | 242° |
| 2026-05-06 08:57 | 52.27929 | 4.37300 | 12688 ft | 362 kts | 242° |
| 2026-05-06 08:58 | 52.26680 | 4.33707 | 13596 ft | 367 kts | 242° |
| 2026-05-06 08:58 | 52.25425 | 4.30112 | 14355 ft | 372 kts | 240° |
| 2026-05-06 08:58 | 52.24134 | 4.26427 | 15064 ft | 377 kts | 240° |
| 2026-05-06 08:58 | 52.22822 | 4.22693 | 15785 ft | 383 kts | 241° |
| 2026-05-06 08:59 | 52.21486 | 4.18901 | 16510 ft | 388 kts | 240° |
| 2026-05-06 08:59 | 52.20153 | 4.15120 | 17195 ft | 393 kts | 240° |
| 2026-05-06 08:59 | 52.18781 | 4.11234 | 17902 ft | 398 kts | 240° |
| 2026-05-06 08:59 | 52.17391 | 4.07308 | 18545 ft | 402 kts | 239° |
| 2026-05-06 09:00 | 52.15986 | 4.03344 | 19189 ft | 404 kts | 239° |
| 2026-05-06 09:00 | 52.14597 | 3.99430 | 19882 ft | 405 kts | 239° |
| 2026-05-06 09:00 | 52.13183 | 3.95453 | 20545 ft | 407 kts | 239° |
| 2026-05-06 09:00 | 52.11762 | 3.91464 | 21209 ft | 409 kts | 240° |
| 2026-05-06 09:01 | 52.10330 | 3.87444 | 21829 ft | 412 kts | 240° |
| 2026-05-06 09:01 | 52.08885 | 3.83397 | 22387 ft | 415 kts | 240° |
| 2026-05-06 09:01 | 52.07432 | 3.79331 | 23037 ft | 416 kts | 240° |
| 2026-05-06 09:01 | 52.05971 | 3.75251 | 23596 ft | 419 kts | 239° |
| 2026-05-06 09:02 | 52.04498 | 3.71144 | 23973 ft | 424 kts | 239° |